Lamar University, Texas
Current Conditions -  °F | °C
As of 3:15 AM on Monday 20 Oct 2014 (Local Time) from KBMT Reporting Station
Clear Clear  
Wind Chill: 62°   Ceiling: Unl
Heat Index: 62°   Visibility: 10mi
Dew Point: 55°   Wind: 3mph
Humidity: 79%   Direction: 70°ENE
Pressure: 30.03"   Gusts: NA
Location:  30.0543°N, 94.1762°W
Report Text: KBMT 200815Z AUTO 07003KT 10SM CLR 17/13 A3003 RMK AO2 T01650128
Loading
Personal Weather Stations






























Interactive Weather Map
Tropical Storm Tracking
New forecast layout! Learn more

10-Day Weather Forecast

Advertisements
Track Severe Weather on mobile